createdAt,value
2017-09-16T00:02:21.226Z,12.60
2017-09-16T00:04:48.795Z,12.60
2017-09-16T00:07:16.367Z,12.50
2017-09-16T00:09:44.005Z,12.50
2017-09-16T00:12:11.547Z,12.50
2017-09-16T00:14:39.547Z,12.50
2017-09-16T00:17:07.137Z,12.50
2017-09-16T00:19:34.703Z,12.40
2017-09-16T00:22:03.088Z,12.40
2017-09-16T00:24:30.689Z,12.40
2017-09-16T00:26:58.674Z,12.30
2017-09-16T00:29:26.351Z,12.40
2017-09-16T00:31:53.949Z,12.30
2017-09-16T00:34:21.604Z,12.30
2017-09-16T00:36:49.152Z,12.30
2017-09-16T00:39:17.836Z,12.30
2017-09-16T00:41:45.672Z,12.30
2017-09-16T00:44:13.287Z,12.20
2017-09-16T00:46:40.896Z,12.20
2017-09-16T00:49:08.499Z,12.10
2017-09-16T00:51:36.539Z,12.10
2017-09-16T00:54:04.084Z,12.10
2017-09-16T00:56:31.664Z,12.00
2017-09-16T00:59:00.052Z,12.00
2017-09-16T01:01:27.845Z,11.90
2017-09-16T01:03:55.459Z,11.90
2017-09-16T01:06:23.009Z,11.90
2017-09-16T01:08:52.362Z,11.80
2017-09-16T01:11:19.973Z,11.80
2017-09-16T01:13:47.527Z,11.80
2017-09-16T01:16:15.133Z,11.70
2017-09-16T01:18:42.695Z,11.70
2017-09-16T01:21:10.559Z,11.70
2017-09-16T01:23:38.120Z,11.60
2017-09-16T01:26:05.663Z,11.60
2017-09-16T01:28:34.052Z,11.50
2017-09-16T01:31:01.599Z,11.50
2017-09-16T01:33:30.238Z,11.50
2017-09-16T01:35:57.800Z,11.50
2017-09-16T01:38:25.360Z,11.50
2017-09-16T01:40:52.979Z,11.50
2017-09-16T01:43:20.551Z,11.50
2017-09-16T01:45:48.566Z,11.50
2017-09-16T01:48:16.128Z,11.50
2017-09-16T01:50:43.737Z,11.50
2017-09-16T01:53:11.351Z,11.40
2017-09-16T01:55:38.936Z,11.50
2017-09-16T01:58:06.867Z,11.40
2017-09-16T02:00:34.415Z,11.30
2017-09-16T02:03:01.971Z,11.30
2017-09-16T02:05:29.595Z,11.30
2017-09-16T02:07:57.311Z,11.20
2017-09-16T02:10:25.368Z,11.20
2017-09-16T02:12:52.942Z,11.20
2017-09-16T02:15:20.556Z,11.20
2017-09-16T02:17:48.182Z,11.20
2017-09-16T02:20:15.769Z,11.20
2017-09-16T02:22:43.699Z,11.10
2017-09-16T02:25:11.292Z,11.10
2017-09-16T02:27:38.864Z,11.10
2017-09-16T02:30:06.458Z,11.10
2017-09-16T02:32:34.090Z,11.10
2017-09-16T02:35:02.194Z,11.10
2017-09-16T02:37:29.752Z,11.10
2017-09-16T02:39:57.701Z,11.00
2017-09-16T02:42:25.296Z,11.00
2017-09-16T02:44:52.863Z,10.90
2017-09-16T02:47:20.715Z,10.90
2017-09-16T02:49:48.274Z,10.90
2017-09-16T02:52:15.827Z,10.80
2017-09-16T02:54:43.451Z,10.80
2017-09-16T02:57:11.008Z,10.90
2017-09-16T02:59:38.890Z,10.80
2017-09-16T03:02:06.451Z,10.80
2017-09-16T03:04:34.039Z,10.80
2017-09-16T03:07:01.797Z,10.70
2017-09-16T03:09:29.394Z,10.70
2017-09-16T03:11:57.575Z,10.70
2017-09-16T03:14:25.907Z,10.70
2017-09-16T03:16:53.508Z,10.70
2017-09-16T03:19:21.903Z,10.80
2017-09-16T03:21:49.460Z,10.70
2017-09-16T03:24:17.500Z,10.70
2017-09-16T03:26:45.074Z,10.70
2017-09-16T03:29:12.634Z,10.60
2017-09-16T03:31:41.010Z,10.60
2017-09-16T03:34:08.581Z,10.60
2017-09-16T03:36:37.223Z,10.60
2017-09-16T03:39:04.764Z,10.60
2017-09-16T03:41:32.284Z,10.60
2017-09-16T03:43:59.906Z,10.60
2017-09-16T03:46:27.479Z,10.50
2017-09-16T03:48:55.354Z,10.50
2017-09-16T03:51:23.691Z,10.30
2017-09-16T03:53:51.299Z,10.30
2017-09-16T03:56:19.650Z,10.30
2017-09-16T03:58:47.234Z,10.30
2017-09-16T04:01:16.023Z,10.30
2017-09-16T04:03:43.579Z,10.30
2017-09-16T04:06:11.914Z,10.30
2017-09-16T04:08:39.530Z,10.30
2017-09-16T04:11:07.882Z,10.30
2017-09-16T04:13:37.482Z,10.30
2017-09-16T04:16:05.835Z,10.30
2017-09-16T04:18:33.395Z,10.30
2017-09-16T04:21:01.002Z,10.30
2017-09-16T04:23:28.598Z,10.30
2017-09-16T04:25:56.607Z,10.30
2017-09-16T04:28:24.162Z,10.30
2017-09-16T04:30:51.712Z,10.30
2017-09-16T04:33:19.579Z,10.30
2017-09-16T04:35:47.127Z,10.30
2017-09-16T04:38:15.160Z,10.30
2017-09-16T04:40:43.479Z,10.30
2017-09-16T04:43:11.000Z,10.30
2017-09-16T04:45:38.590Z,10.30
2017-09-16T04:48:06.152Z,10.30
2017-09-16T04:50:34.046Z,10.30
2017-09-16T04:53:01.648Z,10.40
2017-09-16T04:55:29.778Z,10.40
2017-09-16T04:57:57.422Z,10.40
2017-09-16T05:00:24.977Z,10.40
2017-09-16T05:02:52.983Z,10.40
2017-09-16T05:05:21.318Z,10.40
2017-09-16T05:07:48.896Z,10.40
2017-09-16T05:10:16.489Z,10.40
2017-09-16T05:12:44.056Z,10.40
2017-09-16T05:15:12.712Z,10.40
2017-09-16T05:17:40.274Z,10.40
2017-09-16T05:20:07.875Z,10.40
2017-09-16T05:22:35.701Z,10.40
2017-09-16T05:25:03.292Z,10.30
2017-09-16T05:27:31.247Z,10.30
2017-09-16T05:29:59.573Z,10.30
2017-09-16T05:32:27.175Z,10.20
2017-09-16T05:34:54.803Z,10.20
2017-09-16T05:37:22.364Z,10.20
2017-09-16T05:39:50.393Z,10.20
2017-09-16T05:42:17.995Z,10.20
2017-09-16T05:44:45.561Z,10.20
2017-09-16T05:47:13.167Z,10.30
2017-09-16T05:49:41.491Z,10.40
2017-09-16T05:52:09.514Z,10.40
2017-09-16T05:54:37.839Z,11.50
2017-09-16T05:57:06.409Z,11.50
2017-09-16T05:59:34.019Z,11.60
2017-09-16T06:02:01.575Z,11.50
2017-09-16T06:04:29.590Z,11.30
2017-09-16T06:06:57.169Z,11.20
2017-09-16T06:09:24.862Z,11.10
2017-09-16T06:11:52.502Z,11.00
2017-09-16T06:14:20.098Z,11.00
2017-09-16T06:16:48.780Z,11.00
2017-09-16T06:19:16.326Z,11.00
2017-09-16T06:21:43.929Z,11.00
2017-09-16T06:24:11.531Z,11.10
2017-09-16T06:26:39.123Z,11.10
2017-09-16T06:29:07.059Z,11.10
2017-09-16T06:31:34.649Z,11.10
2017-09-16T06:34:02.237Z,11.10
2017-09-16T06:36:29.824Z,11.20
2017-09-16T06:38:57.384Z,11.20
2017-09-16T06:41:25.573Z,11.20
2017-09-16T06:43:53.139Z,11.30
2017-09-16T06:46:20.732Z,11.30
2017-09-16T06:48:49.436Z,11.50
2017-09-16T06:51:17.229Z,11.50
2017-09-16T06:53:44.798Z,11.50
2017-09-16T06:56:12.414Z,11.60
2017-09-16T06:58:39.966Z,11.70
2017-09-16T07:01:07.912Z,11.80
2017-09-16T07:03:35.526Z,11.90
2017-09-16T07:06:03.292Z,12.00
2017-09-16T07:08:31.286Z,12.10
2017-09-16T07:10:58.843Z,12.20
2017-09-16T07:13:26.423Z,12.20
2017-09-16T07:15:54.012Z,12.30
2017-09-16T07:18:21.581Z,12.30
2017-09-16T07:20:49.682Z,12.30
2017-09-16T07:23:17.298Z,12.30
2017-09-16T07:25:45.903Z,12.40
2017-09-16T07:28:13.525Z,12.40
2017-09-16T07:30:41.395Z,12.50
2017-09-16T07:33:08.949Z,12.50
2017-09-16T07:35:36.543Z,12.60
2017-09-16T07:38:04.518Z,12.70
2017-09-16T07:40:32.191Z,12.90
2017-09-16T07:42:59.742Z,12.90
2017-09-16T07:45:27.328Z,12.90
2017-09-16T07:47:54.926Z,12.90
2017-09-16T07:50:22.975Z,12.80
2017-09-16T07:52:50.535Z,12.80
2017-09-16T07:55:18.108Z,12.80
2017-09-16T07:57:45.693Z,12.80
2017-09-16T08:00:13.252Z,12.80
2017-09-16T08:02:41.912Z,12.80
2017-09-16T08:05:09.463Z,12.80
2017-09-16T08:07:37.046Z,12.80
2017-09-16T08:10:05.403Z,12.90
2017-09-16T08:12:34.495Z,12.80
2017-09-16T08:15:02.452Z,12.90
2017-09-16T08:17:30.044Z,12.90
2017-09-16T08:19:58.367Z,12.90
2017-09-16T08:22:26.097Z,12.80
2017-09-16T08:24:54.418Z,13.00
2017-09-16T08:27:22.374Z,13.00
2017-09-16T08:29:50.104Z,13.00
2017-09-16T08:32:18.450Z,13.10
2017-09-16T08:34:46.060Z,13.10
2017-09-16T08:37:13.644Z,13.10
2017-09-16T08:39:41.778Z,13.20
2017-09-16T08:42:10.084Z,13.20
2017-09-16T08:44:37.640Z,13.20
2017-09-16T08:47:05.239Z,13.20
2017-09-16T08:49:32.789Z,13.20
2017-09-16T08:52:00.713Z,13.20
2017-09-16T08:54:28.263Z,13.20
2017-09-16T08:56:55.820Z,13.20
2017-09-16T08:59:24.193Z,13.20
2017-09-16T09:01:51.814Z,13.20
2017-09-16T09:04:20.732Z,13.20
2017-09-16T09:06:48.281Z,13.20
2017-09-16T09:09:15.876Z,13.30
2017-09-16T09:11:43.487Z,13.30
2017-09-16T09:14:11.094Z,13.30
2017-09-16T09:16:39.983Z,13.30
2017-09-16T09:19:08.339Z,13.40
2017-09-16T09:21:35.951Z,13.30
2017-09-16T09:24:03.613Z,13.40
2017-09-16T09:26:31.247Z,13.40
2017-09-16T09:28:59.622Z,13.50
2017-09-16T09:31:27.179Z,13.40
2017-09-16T09:33:56.030Z,13.60
2017-09-16T09:36:23.598Z,13.60
2017-09-16T09:38:51.177Z,13.70
2017-09-16T09:41:18.798Z,13.80
2017-09-16T09:43:46.387Z,13.90
2017-09-16T09:46:14.639Z,14.00
2017-09-16T09:48:42.497Z,14.10
2017-09-16T09:51:10.076Z,14.10
2017-09-16T09:53:37.670Z,14.10
2017-09-16T09:56:05.221Z,14.10
2017-09-16T09:58:33.880Z,14.20
2017-09-16T10:01:01.475Z,14.20
2017-09-16T10:03:29.088Z,14.20
2017-09-16T10:05:57.133Z,14.30
2017-09-16T10:08:24.679Z,14.30
2017-09-16T10:10:52.600Z,14.40
2017-09-16T10:13:20.262Z,14.50
2017-09-16T10:15:47.821Z,14.60
2017-09-16T10:18:15.522Z,14.60
2017-09-16T10:20:43.964Z,14.60
2017-09-16T10:23:11.933Z,14.50
2017-09-16T10:25:39.512Z,14.50
2017-09-16T10:28:07.860Z,14.40
2017-09-16T10:30:35.549Z,14.40
2017-09-16T10:33:03.895Z,14.40
2017-09-16T10:35:31.887Z,14.30
2017-09-16T10:37:59.530Z,14.40
2017-09-16T10:40:27.086Z,14.30
2017-09-16T10:42:54.721Z,14.40
2017-09-16T10:45:22.318Z,14.40
2017-09-16T10:47:51.003Z,14.40
2017-09-16T10:50:19.342Z,14.40
2017-09-16T10:52:46.902Z,14.40
2017-09-16T10:55:14.483Z,14.50
2017-09-16T10:57:42.060Z,14.50
2017-09-16T11:00:10.130Z,14.50
2017-09-16T11:02:37.740Z,14.50
2017-09-16T11:05:05.330Z,14.60
2017-09-16T11:07:33.033Z,14.60
2017-09-16T11:10:00.679Z,14.70
2017-09-16T11:12:28.657Z,14.70
2017-09-16T11:14:56.274Z,14.80
2017-09-16T11:17:23.903Z,14.80
2017-09-16T11:19:51.544Z,14.90
2017-09-16T11:22:19.130Z,14.90
2017-09-16T11:24:47.760Z,15.10
2017-09-16T11:27:15.349Z,15.10
2017-09-16T11:29:42.943Z,15.20
2017-09-16T11:32:10.607Z,15.40
2017-09-16T11:34:38.194Z,15.60
2017-09-16T11:37:06.303Z,15.80
2017-09-16T11:39:33.880Z,15.90
2017-09-16T11:42:01.431Z,16.00
2017-09-16T11:44:29.305Z,16.20
2017-09-16T11:46:57.649Z,16.30
2017-09-16T11:49:25.226Z,16.30
2017-09-16T11:51:52.851Z,16.40
2017-09-16T11:54:20.583Z,16.50
2017-09-16T11:56:48.368Z,16.50
2017-09-16T11:59:15.995Z,16.60
2017-09-16T12:01:43.602Z,16.60
2017-09-16T12:04:11.171Z,16.60
2017-09-16T12:06:39.060Z,16.60
2017-09-16T12:09:07.018Z,16.70
2017-09-16T12:11:34.576Z,16.80
2017-09-16T12:14:02.657Z,17.10
2017-09-16T12:16:30.986Z,17.50
2017-09-16T12:18:58.578Z,17.50
2017-09-16T12:21:26.361Z,17.40
2017-09-16T12:23:53.930Z,17.50
2017-09-16T12:26:21.833Z,17.50
2017-09-16T12:28:49.419Z,17.50
2017-09-16T12:31:17.019Z,17.40
2017-09-16T12:33:44.684Z,17.30
2017-09-16T12:36:12.251Z,17.20
2017-09-16T12:38:41.139Z,17.20
2017-09-16T12:41:09.484Z,17.30
2017-09-16T12:43:37.080Z,17.20
2017-09-16T12:46:05.448Z,17.10
2017-09-16T12:48:32.998Z,17.10
2017-09-16T12:51:01.038Z,17.10
2017-09-16T12:53:28.627Z,17.00
2017-09-16T12:55:56.203Z,16.90
2017-09-16T12:58:24.588Z,16.80
2017-09-16T13:00:52.162Z,16.80
2017-09-16T13:03:20.787Z,16.70
2017-09-16T13:05:48.531Z,16.70
2017-09-16T13:08:16.129Z,16.60
2017-09-16T13:10:43.784Z,16.60
2017-09-16T13:13:11.383Z,16.60
2017-09-16T13:15:39.312Z,16.70
2017-09-16T13:18:06.897Z,16.70
2017-09-16T13:20:35.251Z,16.80
2017-09-16T13:23:02.852Z,16.80
2017-09-16T13:25:30.629Z,16.80
2017-09-16T13:27:58.678Z,16.80
2017-09-16T13:30:27.001Z,16.70
2017-09-16T13:32:54.567Z,16.70
2017-09-16T13:35:22.217Z,16.80
2017-09-16T13:37:49.837Z,16.80
2017-09-16T13:40:17.743Z,16.90
2017-09-16T13:42:45.312Z,17.00
2017-09-16T13:45:12.887Z,17.00
2017-09-16T13:47:40.492Z,17.00
2017-09-16T13:50:08.189Z,16.90
2017-09-16T13:52:36.080Z,16.90
2017-09-16T13:55:03.652Z,17.00
2017-09-16T13:57:32.757Z,17.20
2017-09-16T14:00:01.136Z,17.30
2017-09-16T14:02:29.463Z,17.40
2017-09-16T14:04:57.375Z,17.30
2017-09-16T14:07:26.446Z,17.40
2017-09-16T14:09:54.168Z,17.40
2017-09-16T14:12:21.756Z,17.40
2017-09-16T14:14:49.518Z,17.30
2017-09-16T14:17:17.451Z,17.20
2017-09-16T14:19:45.793Z,17.10
2017-09-16T14:22:13.368Z,17.10
2017-09-16T14:24:40.968Z,17.10
2017-09-16T14:27:08.534Z,17.00
2017-09-16T14:29:36.559Z,17.00
2017-09-16T14:32:04.100Z,17.00
2017-09-16T14:34:31.655Z,17.00
2017-09-16T14:36:59.261Z,17.10
2017-09-16T14:39:26.881Z,17.20
2017-09-16T14:41:55.056Z,17.20
2017-09-16T14:44:22.623Z,17.20
2017-09-16T14:46:50.216Z,17.20
2017-09-16T14:49:18.604Z,17.10
2017-09-16T14:51:46.192Z,17.10
2017-09-16T14:54:14.171Z,17.10
2017-09-16T14:56:41.744Z,17.10
2017-09-16T14:59:09.312Z,17.10
2017-09-16T15:01:36.939Z,17.00
2017-09-16T15:04:04.499Z,17.00
2017-09-16T15:06:32.500Z,16.90
2017-09-16T15:09:00.051Z,16.80
2017-09-16T15:11:27.619Z,16.70
2017-09-16T15:13:55.237Z,16.60
2017-09-16T15:16:22.840Z,16.60
2017-09-16T15:18:52.441Z,16.40
2017-09-16T15:21:20.039Z,16.40
2017-09-16T15:23:47.654Z,16.40
2017-09-16T15:26:15.485Z,16.30
2017-09-16T15:28:43.053Z,16.30
2017-09-16T15:31:11.155Z,16.20
2017-09-16T15:33:38.860Z,16.20
2017-09-16T15:36:07.199Z,16.10
2017-09-16T15:38:34.978Z,16.00
2017-09-16T15:41:02.570Z,16.00
2017-09-16T15:43:30.490Z,16.00
2017-09-16T15:45:58.044Z,15.90
2017-09-16T15:48:25.636Z,15.90
2017-09-16T15:50:54.018Z,15.80
2017-09-16T15:53:21.606Z,15.80
2017-09-16T15:55:49.636Z,15.80
2017-09-16T15:58:17.192Z,15.70
2017-09-16T16:00:44.764Z,15.70
2017-09-16T16:03:12.395Z,15.60
2017-09-16T16:05:40.005Z,15.60
2017-09-16T16:08:07.967Z,15.50
2017-09-16T16:10:36.311Z,15.50
2017-09-16T16:13:03.863Z,15.50
2017-09-16T16:15:31.494Z,15.50
2017-09-16T16:17:59.073Z,15.40
2017-09-16T16:20:27.058Z,15.40
2017-09-16T16:22:54.629Z,15.40
2017-09-16T16:25:22.210Z,15.40
2017-09-16T16:27:50.600Z,15.40
2017-09-16T16:30:18.170Z,15.30
2017-09-16T16:32:46.067Z,15.30
2017-09-16T16:35:13.639Z,15.30
2017-09-16T16:37:41.264Z,15.30
2017-09-16T16:40:08.870Z,15.30
2017-09-16T16:42:36.472Z,15.30
2017-09-16T16:45:04.524Z,15.20
2017-09-16T16:47:32.843Z,15.20
2017-09-16T16:50:00.434Z,15.20
2017-09-16T16:52:28.058Z,15.20
2017-09-16T16:54:55.631Z,15.20
2017-09-16T16:57:23.816Z,15.20
2017-09-16T16:59:51.380Z,15.20
2017-09-16T17:02:18.951Z,15.10
2017-09-16T17:04:46.559Z,15.10
2017-09-16T17:07:14.151Z,15.00
2017-09-16T17:09:41.796Z,15.00
2017-09-16T17:12:09.379Z,15.00
2017-09-16T17:14:37.696Z,14.90
2017-09-16T17:17:06.083Z,14.90
2017-09-16T17:19:33.628Z,14.90
2017-09-16T17:22:02.280Z,14.80
2017-09-16T17:24:29.840Z,14.80
2017-09-16T17:26:57.683Z,14.80
2017-09-16T17:29:25.301Z,14.70
2017-09-16T17:31:53.699Z,14.70
2017-09-16T17:34:21.652Z,14.70
2017-09-16T17:36:49.967Z,14.60
2017-09-16T17:39:18.419Z,14.60
2017-09-16T17:41:46.777Z,14.50
2017-09-16T17:44:14.495Z,14.50
2017-09-16T17:46:42.440Z,14.50
2017-09-16T17:49:10.024Z,14.40
2017-09-16T17:51:37.794Z,14.40
2017-09-16T17:54:05.392Z,14.40
2017-09-16T17:56:33.027Z,14.30
2017-09-16T17:59:01.107Z,14.30
2017-09-16T18:01:28.719Z,14.30
2017-09-16T18:03:56.336Z,14.30
2017-09-16T18:06:23.960Z,14.20
2017-09-16T18:08:51.569Z,14.20
2017-09-16T18:11:19.643Z,14.20
2017-09-16T18:13:47.529Z,14.20
2017-09-16T18:16:15.107Z,14.10
2017-09-16T18:18:42.700Z,14.10
2017-09-16T18:21:10.291Z,14.10
2017-09-16T18:23:38.363Z,14.10
2017-09-16T18:26:06.735Z,14.10
2017-09-16T18:28:34.300Z,14.10
2017-09-16T18:31:01.916Z,14.10
2017-09-16T18:33:29.520Z,14.10
2017-09-16T18:35:57.677Z,14.10
2017-09-16T18:38:25.276Z,14.10
2017-09-16T18:40:52.902Z,14.10
2017-09-16T18:43:20.519Z,14.10
2017-09-16T18:45:48.152Z,14.10
2017-09-16T18:48:16.788Z,14.10
2017-09-16T18:50:44.327Z,14.10
2017-09-16T18:53:11.895Z,14.10
2017-09-16T18:55:39.517Z,14.10
2017-09-16T18:58:07.101Z,14.10
2017-09-16T19:00:34.783Z,14.00
2017-09-16T19:03:02.339Z,14.00
2017-09-16T19:05:30.234Z,14.00
2017-09-16T19:07:57.803Z,13.90
2017-09-16T19:10:25.418Z,13.90
2017-09-16T19:12:53.038Z,13.90
2017-09-16T19:15:21.403Z,13.80
2017-09-16T19:17:49.369Z,13.80
2017-09-16T19:20:16.922Z,13.80
2017-09-16T19:22:44.507Z,13.80
2017-09-16T19:25:12.882Z,13.80
2017-09-16T19:27:40.531Z,13.70
2017-09-16T19:30:09.090Z,13.80
2017-09-16T19:32:36.680Z,13.70
2017-09-16T19:35:04.252Z,13.70
2017-09-16T19:37:32.668Z,13.60
2017-09-16T19:40:00.244Z,13.60
2017-09-16T19:42:28.424Z,13.60
2017-09-16T19:44:56.005Z,13.50
2017-09-16T19:47:25.108Z,13.40
2017-09-16T19:49:52.740Z,13.50
2017-09-16T19:52:20.302Z,13.40
2017-09-16T19:54:48.204Z,13.40
2017-09-16T19:57:16.623Z,13.30
2017-09-16T19:59:44.216Z,13.30
2017-09-16T20:02:11.822Z,13.30
2017-09-16T20:04:40.136Z,13.20
2017-09-16T20:07:08.159Z,13.20
2017-09-16T20:09:36.538Z,13.20
2017-09-16T20:12:04.097Z,13.10
2017-09-16T20:14:32.463Z,13.10
2017-09-16T20:17:00.048Z,13.10
2017-09-16T20:19:28.709Z,13.00
2017-09-16T20:21:57.055Z,13.00
2017-09-16T20:24:24.618Z,13.00
2017-09-16T20:26:52.232Z,12.90
2017-09-16T20:29:19.839Z,12.80
2017-09-16T20:31:47.819Z,12.80
2017-09-16T20:34:15.423Z,12.70
2017-09-16T20:36:42.975Z,12.60
2017-09-16T20:39:12.097Z,12.50
2017-09-16T20:41:39.682Z,12.50
2017-09-16T20:44:07.553Z,12.50
2017-09-16T20:46:35.151Z,12.50
2017-09-16T20:49:02.736Z,12.50
2017-09-16T20:51:30.374Z,12.40
2017-09-16T20:53:58.712Z,12.40
2017-09-16T20:56:26.678Z,12.40
2017-09-16T20:58:54.255Z,12.40
2017-09-16T21:01:21.830Z,12.40
2017-09-16T21:03:50.205Z,12.30
2017-09-16T21:06:18.539Z,12.30
2017-09-16T21:08:46.453Z,12.30
2017-09-16T21:11:14.040Z,12.30
2017-09-16T21:13:41.725Z,12.30
2017-09-16T21:16:09.325Z,12.30
2017-09-16T21:18:36.898Z,12.30
2017-09-16T21:21:05.551Z,12.30
2017-09-16T21:23:33.155Z,12.20
2017-09-16T21:26:00.889Z,12.20
2017-09-16T21:28:28.517Z,12.20
2017-09-16T21:30:56.154Z,12.10
2017-09-16T21:33:24.113Z,12.10
2017-09-16T21:35:52.079Z,12.10
2017-09-16T21:38:19.660Z,12.10
2017-09-16T21:40:47.299Z,12.00
2017-09-16T21:43:15.628Z,12.00
2017-09-16T21:45:43.620Z,12.00
2017-09-16T21:48:11.212Z,12.00
2017-09-16T21:50:38.829Z,11.90
2017-09-16T21:53:06.480Z,11.90
2017-09-16T21:55:34.064Z,11.90
2017-09-16T21:58:01.931Z,11.90
2017-09-16T22:00:30.271Z,11.90
2017-09-16T22:02:57.848Z,11.90
2017-09-16T22:05:25.455Z,11.90
2017-09-16T22:07:53.028Z,11.90
2017-09-16T22:10:21.063Z,11.80
2017-09-16T22:12:48.684Z,11.80
2017-09-16T22:15:16.232Z,11.80
2017-09-16T22:17:43.892Z,11.80
2017-09-16T22:20:11.940Z,11.80
2017-09-16T22:22:40.797Z,11.70
2017-09-16T22:25:09.160Z,11.60
2017-09-16T22:27:36.899Z,11.60
2017-09-16T22:30:04.589Z,11.60
2017-09-16T22:32:32.215Z,11.50
2017-09-16T22:35:00.117Z,11.50
2017-09-16T22:37:27.689Z,11.40
2017-09-16T22:39:56.759Z,11.40
2017-09-16T22:42:24.386Z,11.40
2017-09-16T22:44:52.200Z,11.40
2017-09-16T22:47:20.275Z,11.40
2017-09-16T22:49:47.832Z,11.40
2017-09-16T22:52:15.400Z,11.40
2017-09-16T22:54:44.218Z,11.30
2017-09-16T22:57:11.828Z,11.30
2017-09-16T22:59:39.844Z,11.20
2017-09-16T23:02:07.418Z,11.20
2017-09-16T23:04:35.064Z,11.20
2017-09-16T23:07:02.667Z,11.10
2017-09-16T23:09:30.232Z,11.20
2017-09-16T23:11:58.895Z,11.10
2017-09-16T23:14:26.438Z,11.10
2017-09-16T23:16:54.101Z,11.10
2017-09-16T23:19:22.103Z,11.10
2017-09-16T23:21:50.426Z,11.10
2017-09-16T23:24:17.963Z,11.10
2017-09-16T23:26:45.671Z,11.00
2017-09-16T23:29:13.244Z,10.90
2017-09-16T23:31:41.198Z,10.90
2017-09-16T23:34:08.783Z,10.90
2017-09-16T23:36:36.339Z,10.80
2017-09-16T23:39:03.943Z,10.80
2017-09-16T23:41:31.504Z,10.80
2017-09-16T23:43:59.424Z,10.80
2017-09-16T23:46:26.979Z,10.80
2017-09-16T23:48:54.533Z,10.80
2017-09-16T23:51:22.136Z,10.80
2017-09-16T23:53:50.583Z,10.70
2017-09-16T23:56:18.451Z,10.70
2017-09-16T23:58:45.994Z,10.70
